createdAt,value
2018-01-21T00:02:28.220Z,66.00
2018-01-21T00:05:07.446Z,66.10
2018-01-21T00:07:36.456Z,66.00
2018-01-21T00:10:05.438Z,66.00
2018-01-21T00:12:34.408Z,65.90
2018-01-21T00:15:04.131Z,65.70
2018-01-21T00:17:33.875Z,65.70
2018-01-21T00:20:02.857Z,65.60
2018-01-21T00:22:49.780Z,66.00
2018-01-21T00:25:18.754Z,66.50
2018-01-21T00:27:47.719Z,66.70
2018-01-21T00:30:17.487Z,66.70
2018-01-21T00:32:46.414Z,66.60
2018-01-21T00:35:20.045Z,66.80
2018-01-21T00:37:49.017Z,66.80
2018-01-21T00:40:18.815Z,66.80
2018-01-21T00:42:47.773Z,66.80
2018-01-21T00:45:16.744Z,66.90
2018-01-21T00:47:46.485Z,67.20
2018-01-21T00:50:15.615Z,67.30
2018-01-21T00:52:47.450Z,67.70
2018-01-21T00:55:17.871Z,67.00
2018-01-21T00:57:48.869Z,66.60
2018-01-21T01:00:17.897Z,66.60
2018-01-21T01:02:53.532Z,66.60
2018-01-21T01:05:27.236Z,66.10
2018-01-21T01:07:56.483Z,66.10
2018-01-21T01:10:26.492Z,65.90
2018-01-21T01:12:57.163Z,66.00
2018-01-21T01:15:40.785Z,66.00
2018-01-21T01:18:13.480Z,66.70
2018-01-21T01:20:43.421Z,65.80
2018-01-21T01:23:15.636Z,65.60
2018-01-21T01:25:45.406Z,65.80
2018-01-21T01:28:19.516Z,65.90
2018-01-21T01:30:51.523Z,65.70
2018-01-21T01:33:21.584Z,65.70
2018-01-21T01:35:55.606Z,65.80
2018-01-21T01:38:26.055Z,65.70
2018-01-21T01:40:59.902Z,66.00
2018-01-21T01:43:39.930Z,66.00
2018-01-21T01:46:10.964Z,66.00
2018-01-21T01:48:57.917Z,66.00
2018-01-21T01:51:27.882Z,66.00
2018-01-21T01:54:03.185Z,65.90
2018-01-21T01:56:32.164Z,66.20
2018-01-21T01:59:05.729Z,66.30
2018-01-21T02:07:47.502Z,67.20
2018-01-21T02:10:18.862Z,67.90
2018-01-21T02:12:53.141Z,67.20
2018-01-21T02:15:24.807Z,67.20
2018-01-21T02:17:58.023Z,67.20
2018-01-21T02:20:32.270Z,67.00
2018-01-21T02:23:02.405Z,66.70
2018-01-21T02:25:32.479Z,66.50
2018-01-21T02:28:02.591Z,66.50
2018-01-21T02:30:32.397Z,66.60
2018-01-21T02:33:01.386Z,66.40
2018-01-21T02:35:30.437Z,66.30
2018-01-21T02:38:00.737Z,66.10
2018-01-21T02:40:29.759Z,66.00
2018-01-21T02:42:59.666Z,66.10
2018-01-21T02:45:29.447Z,66.00
2018-01-21T02:47:58.508Z,66.00
2018-01-21T02:50:27.773Z,65.90
2018-01-21T02:52:56.864Z,65.90
2018-01-21T02:55:25.961Z,66.10
2018-01-21T02:58:00.698Z,66.10
2018-01-21T03:00:30.470Z,66.10
2018-01-21T03:02:59.544Z,66.00
2018-01-21T03:05:28.618Z,66.50
2018-01-21T03:08:02.257Z,66.90
2018-01-21T03:10:31.318Z,66.90
2018-01-21T03:13:00.330Z,67.00
2018-01-21T03:15:29.464Z,67.20
2018-01-21T03:17:58.453Z,67.10
2018-01-21T03:20:27.472Z,67.00
2018-01-21T03:22:57.224Z,66.60
2018-01-21T03:25:28.073Z,66.50
2018-01-21T03:27:57.078Z,66.70
2018-01-21T03:30:26.234Z,66.50
2018-01-21T03:32:55.288Z,66.40
2018-01-21T03:35:24.323Z,66.10
2018-01-21T03:37:53.296Z,66.00
2018-01-21T03:40:22.354Z,65.80
2018-01-21T03:42:51.586Z,65.70
2018-01-21T03:45:20.591Z,65.60
2018-01-21T03:47:49.633Z,65.50
2018-01-21T03:50:18.616Z,65.60
2018-01-21T03:52:47.683Z,65.70
2018-01-21T03:55:16.688Z,65.60
2018-01-21T03:57:45.770Z,65.60
2018-01-21T04:00:14.818Z,65.60
2018-01-21T04:02:43.881Z,65.40
2018-01-21T04:05:12.885Z,65.20
2018-01-21T04:07:42.900Z,65.00
2018-01-21T04:10:11.893Z,64.80
2018-01-21T04:12:41.280Z,65.00
2018-01-21T04:15:10.359Z,65.10
2018-01-21T04:17:39.390Z,65.30
2018-01-21T04:20:08.376Z,65.50
2018-01-21T04:22:37.455Z,65.50
2018-01-21T04:25:06.471Z,65.70
2018-01-21T04:27:35.490Z,65.70
2018-01-21T04:30:05.289Z,65.80
2018-01-21T04:32:34.290Z,65.80
2018-01-21T04:35:03.309Z,66.10
2018-01-21T04:37:32.312Z,66.30
2018-01-21T04:40:03.176Z,66.60
2018-01-21T04:42:32.163Z,66.60
2018-01-21T04:45:01.168Z,66.70
2018-01-21T04:47:30.233Z,66.70
2018-01-21T04:49:59.297Z,66.80
2018-01-21T04:52:28.286Z,66.60
2018-01-21T04:54:57.334Z,66.40
2018-01-21T04:57:26.291Z,66.40
2018-01-21T04:59:55.294Z,66.30
2018-01-21T05:02:24.274Z,66.30
2018-01-21T05:04:53.426Z,66.30
2018-01-21T05:07:26.659Z,66.30
2018-01-21T05:09:56.411Z,66.00
2018-01-21T05:12:25.372Z,66.00
2018-01-21T05:14:54.394Z,67.00
2018-01-21T05:17:23.449Z,66.40
2018-01-21T05:19:53.231Z,66.20
2018-01-21T05:22:22.293Z,66.20
2018-01-21T05:24:54.477Z,66.10
2018-01-21T05:27:25.299Z,66.00
2018-01-21T05:29:59.716Z,65.90
2018-01-21T05:32:34.077Z,65.60
2018-01-21T05:38:15.185Z,65.80
2018-01-21T05:41:11.818Z,65.90
2018-01-21T05:43:46.145Z,65.80
2018-01-21T05:46:27.919Z,65.90
2018-01-21T05:49:19.150Z,65.90
2018-01-21T05:52:01.277Z,65.70
2018-01-21T05:54:50.928Z,65.70
2018-01-21T05:57:34.245Z,65.30
2018-01-21T07:22:12.629Z,60.90
2018-01-21T10:31:29.159Z,60.00
2018-01-21T10:33:59.048Z,59.30
2018-01-21T10:36:29.413Z,58.90
2018-01-21T10:38:59.393Z,58.80
2018-01-21T10:41:29.568Z,58.80
2018-01-21T10:43:59.395Z,58.90
2018-01-21T10:46:35.028Z,58.70
2018-01-21T10:49:04.174Z,58.40
2018-01-21T10:51:33.226Z,58.10
2018-01-21T10:54:02.191Z,56.90
2018-01-21T10:56:43.524Z,57.10
2018-01-21T10:59:12.548Z,56.00
2018-01-21T11:01:41.542Z,56.00
2018-01-21T11:04:10.486Z,55.00
2018-01-21T11:06:40.227Z,55.40
2018-01-21T11:09:09.256Z,54.70
2018-01-21T11:11:38.306Z,54.70
2018-01-21T11:14:07.340Z,55.30
2018-01-21T11:16:37.018Z,56.40
2018-01-21T11:19:05.987Z,56.30
2018-01-21T11:21:35.717Z,55.80
2018-01-21T11:24:04.671Z,55.70
2018-01-21T11:26:33.619Z,55.40
2018-01-21T11:29:02.636Z,55.30
2018-01-21T11:31:33.576Z,55.00
2018-01-21T11:34:02.640Z,53.00
2018-01-21T11:36:44.656Z,51.80
2018-01-21T11:39:18.297Z,51.30
2018-01-21T11:41:47.289Z,49.30
2018-01-21T11:44:17.062Z,49.60
2018-01-21T11:46:46.017Z,49.50
2018-01-21T11:49:14.979Z,49.90
2018-01-21T11:51:44.908Z,49.40
2018-01-21T11:54:13.832Z,49.80
2018-01-21T11:56:42.819Z,50.80
2018-01-21T11:59:11.790Z,51.30
2018-01-21T12:01:41.522Z,52.60
2018-01-21T12:04:10.523Z,52.60
2018-01-21T12:06:39.499Z,53.20
2018-01-21T12:09:08.457Z,53.20
2018-01-21T12:11:43.356Z,53.10
2018-01-21T12:14:16.366Z,52.90
2018-01-21T12:16:45.528Z,53.40
2018-01-21T12:29:13.526Z,52.90
2018-01-21T12:34:54.871Z,52.50
2018-01-21T12:37:38.256Z,53.00
2018-01-21T12:43:01.667Z,53.60
2018-01-21T12:51:04.057Z,53.30
2018-01-21T12:53:40.528Z,53.30
2018-01-21T13:03:51.920Z,46.70
2018-01-21T13:06:21.839Z,38.90
2018-01-21T13:08:51.610Z,37.50
2018-01-21T13:11:20.618Z,37.50
2018-01-21T13:13:49.593Z,36.30
2018-01-21T13:16:18.584Z,36.20
2018-01-21T13:18:47.586Z,36.50
2018-01-21T13:21:16.614Z,37.90
2018-01-21T13:23:46.388Z,39.70
2018-01-21T13:26:15.366Z,39.60
2018-01-21T13:28:44.400Z,39.70
2018-01-21T13:31:13.441Z,38.90
2018-01-21T13:33:42.405Z,38.70
2018-01-21T13:36:12.268Z,38.10
2018-01-21T13:38:45.371Z,38.10
2018-01-21T13:41:39.065Z,38.10
2018-01-21T13:44:14.952Z,39.70
2018-01-21T13:46:44.133Z,40.70
2018-01-21T13:49:13.196Z,41.80
2018-01-21T13:51:42.904Z,42.90
2018-01-21T13:54:11.934Z,44.10
2018-01-21T13:56:41.718Z,45.30
2018-01-21T13:59:15.528Z,45.30
2018-01-21T14:01:44.547Z,46.50
2018-01-21T14:04:14.285Z,48.40
2018-01-21T14:06:43.316Z,47.70
2018-01-21T14:09:12.328Z,46.70
2018-01-21T14:11:42.257Z,45.90
2018-01-21T14:14:12.036Z,42.10
2018-01-21T14:16:41.021Z,42.10
2018-01-21T14:19:10.012Z,40.50
2018-01-21T14:21:39.055Z,38.30
2018-01-21T14:24:08.032Z,37.60
2018-01-21T14:26:37.828Z,37.60
2018-01-21T14:29:06.783Z,37.60
2018-01-21T14:31:41.408Z,38.30
2018-01-21T14:34:10.392Z,39.70
2018-01-21T14:36:39.354Z,40.80
2018-01-21T14:39:09.113Z,43.50
2018-01-21T14:41:38.940Z,43.50
2018-01-21T14:44:07.891Z,45.60
2018-01-21T14:46:36.871Z,46.80
2018-01-21T14:49:05.823Z,47.90
2018-01-21T14:51:34.915Z,48.80
2018-01-21T14:54:04.610Z,49.50
2018-01-21T14:56:33.768Z,50.30
2018-01-21T14:59:03.553Z,51.40
2018-01-21T15:01:32.506Z,51.30
2018-01-21T15:04:01.469Z,51.90
2018-01-21T15:06:30.526Z,51.80
2018-01-21T15:09:07.847Z,52.30
2018-01-21T15:11:37.039Z,52.50
2018-01-21T15:14:05.962Z,52.90
2018-01-21T15:16:35.250Z,53.00
2018-01-21T15:22:05.059Z,52.90
2018-01-21T15:24:34.035Z,53.20
2018-01-21T15:27:03.785Z,53.90
2018-01-21T15:29:32.747Z,53.90
2018-01-21T15:32:01.698Z,53.70
2018-01-21T15:34:30.679Z,53.60
2018-01-21T15:37:10.970Z,53.40
2018-01-21T15:39:41.674Z,53.50
2018-01-21T15:42:10.630Z,54.10
2018-01-21T15:44:39.629Z,54.00
2018-01-21T15:47:08.585Z,54.40
2018-01-21T15:49:38.348Z,55.30
2018-01-21T15:52:07.307Z,55.20
2018-01-21T15:54:36.330Z,55.10
2018-01-21T15:57:05.364Z,55.00
2018-01-21T15:59:34.364Z,55.90
2018-01-21T16:02:04.084Z,56.30
2018-01-21T16:04:33.847Z,56.10
2018-01-21T16:07:02.831Z,55.90
2018-01-21T16:09:37.681Z,56.20
2018-01-21T16:12:06.655Z,56.40
2018-01-21T16:14:35.644Z,56.50
2018-01-21T16:17:10.184Z,56.80
2018-01-21T16:19:41.119Z,57.00
2018-01-21T16:22:10.104Z,57.30
2018-01-21T16:24:39.106Z,57.80
2018-01-21T16:27:08.084Z,58.20
2018-01-21T16:29:37.052Z,58.50
2018-01-21T16:32:06.034Z,58.70
2018-01-21T16:34:34.980Z,58.90
2018-01-21T16:37:04.049Z,58.90
2018-01-21T16:39:33.058Z,59.00
2018-01-21T16:42:08.643Z,59.10
2018-01-21T16:44:38.372Z,59.10
2018-01-21T16:47:07.343Z,59.10
2018-01-21T16:49:37.101Z,59.10
2018-01-21T16:52:06.065Z,59.10
2018-01-21T16:54:37.775Z,59.00
2018-01-21T16:57:06.738Z,59.00
2018-01-21T16:59:35.780Z,59.00
2018-01-21T17:02:04.941Z,59.10
2018-01-21T17:04:33.936Z,59.20
2018-01-21T17:07:02.927Z,59.20
2018-01-21T17:09:31.993Z,59.10
2018-01-21T17:12:00.967Z,59.20
2018-01-21T17:14:30.909Z,59.40
2018-01-21T17:17:00.800Z,59.50
2018-01-21T17:19:34.269Z,59.40
2018-01-21T17:22:03.223Z,59.50
2018-01-21T17:24:32.206Z,59.40
2018-01-21T17:27:01.158Z,59.60
2018-01-21T17:29:34.298Z,59.70
2018-01-21T17:32:03.254Z,59.60
2018-01-21T17:34:38.698Z,59.90
2018-01-21T17:37:07.616Z,59.90
2018-01-21T17:39:36.566Z,59.90
2018-01-21T17:42:10.942Z,59.60
2018-01-21T17:44:41.905Z,59.70
2018-01-21T17:47:10.887Z,59.90
2018-01-21T17:49:39.852Z,59.70
2018-01-21T17:52:08.830Z,59.80
2018-01-21T17:54:37.786Z,59.80
2018-01-21T17:57:07.138Z,59.60
2018-01-21T17:59:36.082Z,59.50
2018-01-21T18:02:06.081Z,59.60
2018-01-21T18:04:49.595Z,59.50
2018-01-21T18:07:21.323Z,59.50
2018-01-21T18:09:50.391Z,59.50
2018-01-21T18:12:19.420Z,59.60
2018-01-21T18:14:48.429Z,59.90
2018-01-21T18:17:17.439Z,59.80
2018-01-21T18:19:50.177Z,60.00
2018-01-21T18:22:19.698Z,59.90
2018-01-21T18:24:58.631Z,60.00
2018-01-21T18:27:28.931Z,59.90
2018-01-21T18:30:20.371Z,60.20
2018-01-21T18:32:50.695Z,60.50
2018-01-21T18:35:26.294Z,60.60
2018-01-21T18:37:55.494Z,60.60
2018-01-21T18:40:26.761Z,60.70
2018-01-21T18:42:56.627Z,60.70
2018-01-21T18:45:26.577Z,60.70
2018-01-21T18:47:55.573Z,60.80
2018-01-21T18:50:45.287Z,60.70
2018-01-21T18:53:28.264Z,60.40
2018-01-21T18:56:03.017Z,59.90
2018-01-21T18:58:32.027Z,59.80
2018-01-21T19:01:05.471Z,59.50
2018-01-21T19:03:38.725Z,59.20
2018-01-21T19:06:08.627Z,59.30
2018-01-21T19:08:37.587Z,59.40
2018-01-21T19:11:06.570Z,59.50
2018-01-21T19:13:37.186Z,59.50
2018-01-21T19:16:06.221Z,59.50
2018-01-21T19:18:35.927Z,59.60
2018-01-21T19:21:04.913Z,59.80
2018-01-21T19:23:34.039Z,59.90
2018-01-21T19:26:04.995Z,60.00
2018-01-21T19:28:34.002Z,60.20
2018-01-21T19:31:03.190Z,60.60
2018-01-21T19:33:32.127Z,61.50
2018-01-21T19:36:01.090Z,60.80
2018-01-21T19:38:30.578Z,60.70
2018-01-21T19:41:05.364Z,60.40
2018-01-21T19:43:40.255Z,59.80
2018-01-21T19:46:09.209Z,59.20
2018-01-21T19:54:32.284Z,59.40
2018-01-21T19:57:04.527Z,59.20
2018-01-21T19:59:35.525Z,59.00
2018-01-21T20:02:04.736Z,59.10
2018-01-21T20:04:41.135Z,59.20
2018-01-21T20:07:11.018Z,59.40
2018-01-21T20:09:40.066Z,59.40
2018-01-21T20:12:10.601Z,59.20
2018-01-21T20:14:44.014Z,59.20
2018-01-21T20:17:18.404Z,59.20
2018-01-21T20:19:55.855Z,59.10
2018-01-21T20:22:29.956Z,59.20
2018-01-21T20:24:59.096Z,59.20
2018-01-21T20:27:34.475Z,59.30
2018-01-21T20:30:04.628Z,59.40
2018-01-21T20:32:44.211Z,59.40
2018-01-21T20:35:13.429Z,59.50
2018-01-21T20:37:45.291Z,60.00
2018-01-21T20:40:15.681Z,60.10
2018-01-21T20:42:47.599Z,60.00
2018-01-21T20:45:19.851Z,60.20
2018-01-21T20:47:50.432Z,60.40
2018-01-21T20:50:24.385Z,60.00
2018-01-21T20:52:54.322Z,60.10
2018-01-21T20:55:24.807Z,60.00
2018-01-21T20:57:54.348Z,59.70
2018-01-21T21:00:23.815Z,59.70
2018-01-21T21:02:52.799Z,59.60
2018-01-21T21:05:21.812Z,59.50
2018-01-21T21:07:50.784Z,59.40
2018-01-21T21:10:19.753Z,59.40
2018-01-21T21:12:49.511Z,59.70
2018-01-21T21:15:18.572Z,59.70
2018-01-21T21:17:47.643Z,60.10
2018-01-21T21:20:17.452Z,60.40
2018-01-21T21:22:46.579Z,60.70
2018-01-21T21:25:15.589Z,60.80
2018-01-21T21:27:44.615Z,60.80
2018-01-21T21:30:13.572Z,60.90
2018-01-21T21:32:44.548Z,60.80
2018-01-21T21:35:13.591Z,60.70
2018-01-21T21:37:42.625Z,60.50
2018-01-21T21:40:11.602Z,60.80
2018-01-21T21:42:41.054Z,60.60
2018-01-21T21:45:12.068Z,60.60
2018-01-21T21:47:41.430Z,60.60
2018-01-21T21:50:10.902Z,60.50
2018-01-21T21:52:40.787Z,60.30
2018-01-21T21:55:09.763Z,60.30
2018-01-21T21:57:38.905Z,60.10
2018-01-21T22:00:10.611Z,60.10
2018-01-21T22:02:40.716Z,59.60
2018-01-21T22:05:10.289Z,59.50
2018-01-21T22:07:40.040Z,59.60
2018-01-21T22:10:09.060Z,59.60
2018-01-21T22:12:38.062Z,59.80
2018-01-21T22:15:08.135Z,60.00
2018-01-21T22:17:37.132Z,60.20
2018-01-21T22:20:06.328Z,60.50
2018-01-21T22:22:35.311Z,60.60
2018-01-21T22:25:04.483Z,60.70
2018-01-21T22:27:33.422Z,60.90
2018-01-21T22:30:03.591Z,60.90
2018-01-21T22:32:32.559Z,60.90
2018-01-21T22:35:02.434Z,61.30
2018-01-21T22:37:32.770Z,60.70
2018-01-21T22:40:02.572Z,60.70
2018-01-21T22:42:31.563Z,60.70
2018-01-21T22:45:00.532Z,60.70
2018-01-21T22:47:29.527Z,60.40
2018-01-21T22:50:00.461Z,60.30
2018-01-21T22:52:29.511Z,60.30
2018-01-21T22:54:58.511Z,60.20
2018-01-21T22:57:27.543Z,60.10
2018-01-21T22:59:57.541Z,60.20
2018-01-21T23:02:26.640Z,60.30
2018-01-21T23:04:56.457Z,60.70
2018-01-21T23:07:25.509Z,60.70
2018-01-21T23:09:54.596Z,60.50
2018-01-21T23:12:23.737Z,60.50
2018-01-21T23:14:52.745Z,60.60
2018-01-21T23:17:22.538Z,60.20
2018-01-21T23:19:51.652Z,60.30
2018-01-21T23:22:20.741Z,60.30
2018-01-21T23:24:49.769Z,60.30
2018-01-21T23:27:18.750Z,60.20
2018-01-21T23:29:47.770Z,60.30
2018-01-21T23:32:16.790Z,59.80
2018-01-21T23:34:45.862Z,60.00
2018-01-21T23:37:16.863Z,59.70
2018-01-21T23:39:45.894Z,60.00
2018-01-21T23:42:14.898Z,60.30
2018-01-21T23:44:44.432Z,60.40
2018-01-21T23:47:13.614Z,60.50
2018-01-21T23:49:42.744Z,60.60
2018-01-21T23:52:11.755Z,60.70
2018-01-21T23:54:40.792Z,60.90
2018-01-21T23:57:10.684Z,60.70
2018-01-21T23:59:39.663Z,60.70
